Time;durP1;ratioP1;P1;durP2;ratioP2;P2;SDS_P1;SDS_P2;PMS_P1;PMS_P2;Temp;Humidity;BMP_temperature;BMP_pressure;BME280_temperature;BME280_humidity;BME280_pressure;Samples;Min_cycle;Max_cycle;Signal;HPM_P1;HPM_P2
2023/04/10 00:00:32;;;;;;;8.80;7.00;;;13.20;99.90;;;;;;5052306;28;20183;-77
2023/04/10 00:03:02;;;;;;;8.00;6.27;;;13.30;99.90;;;;;;5053788;28;20254;-77
2023/04/10 00:05:28;;;;;;;9.20;6.60;;;13.30;99.90;;;;;;5052469;28;20263;-79
2023/04/10 00:07:55;;;;;;;8.13;6.27;;;13.30;99.90;;;;;;5054148;28;20210;-76
2023/04/10 00:10:21;;;;;;;10.07;7.13;;;13.20;99.90;;;;;;5052701;28;20182;-78
2023/04/10 00:12:54;;;;;;;12.13;6.50;;;13.20;99.90;;;;;;5052882;28;20243;-76
2023/04/10 00:15:20;;;;;;;10.07;7.10;;;13.20;99.90;;;;;;5054594;28;20164;-78
2023/04/10 00:17:46;;;;;;;8.80;5.70;;;13.10;99.90;;;;;;5052689;28;20235;-77
2023/04/10 00:20:11;;;;;;;11.20;6.70;;;13.10;99.90;;;;;;5054187;28;20202;-75
2023/04/10 00:22:41;;;;;;;9.67;6.30;;;13.00;99.90;;;;;;5052142;28;20163;-76
2023/04/10 00:25:07;;;;;;;10.13;6.80;;;13.00;99.90;;;;;;5037129;28;20207;-76
2023/04/10 00:27:33;;;;;;;10.27;7.00;;;13.00;99.90;;;;;;5054619;28;20759;-76
2023/04/10 00:30:14;;;;;;;11.93;6.60;;;13.00;99.90;;;;;;5053011;28;20317;-79
2023/04/10 00:32:46;;;;;;;9.73;6.67;;;12.90;99.90;;;;;;5053053;28;20179;-79
2023/04/10 00:35:12;;;;;;;9.83;6.83;;;12.90;99.90;;;;;;5053457;28;20190;-75
2023/04/10 00:37:39;;;;;;;12.00;7.17;;;12.90;99.90;;;;;;5052756;28;20179;-77
2023/04/10 00:40:08;;;;;;;11.87;7.10;;;12.70;99.90;;;;;;5054565;28;20530;-79
2023/04/10 00:42:33;;;;;;;8.70;6.37;;;12.60;99.90;;;;;;5052268;28;20179;-78
2023/04/10 00:44:59;;;;;;;10.07;6.70;;;12.60;99.90;;;;;;5052487;28;20214;-77
2023/04/10 00:47:26;;;;;;;10.60;6.77;;;12.50;99.90;;;;;;5052089;28;20175;-76
2023/04/10 00:49:52;;;;;;;8.70;6.07;;;12.50;99.90;;;;;;5052627;28;20174;-77
2023/04/10 00:52:18;;;;;;;7.93;6.30;;;12.50;99.90;;;;;;5052076;28;20226;-76
2023/04/10 00:54:44;;;;;;;8.63;6.37;;;12.50;99.90;;;;;;5052138;28;20186;-78
2023/04/10 00:57:10;;;;;;;8.77;6.67;;;12.50;99.90;;;;;;5052385;28;20193;-78
2023/04/10 00:59:37;;;;;;;9.37;6.60;;;12.50;99.90;;;;;;5053478;28;20178;-77
2023/04/10 01:02:03;;;;;;;7.73;6.40;;;12.40;99.90;;;;;;5052423;28;20189;-78
2023/04/10 01:04:30;;;;;;;8.07;6.50;;;12.40;99.90;;;;;;5052510;28;20590;-77
2023/04/10 01:07:20;;;;;;;10.73;6.47;;;12.30;99.90;;;;;;5052848;28;20199;-76
2023/04/10 01:10:05;;;;;;;9.47;6.07;;;12.20;99.90;;;;;;5052750;28;20597;-76
2023/04/10 01:12:39;;;;;;;8.37;6.80;;;12.10;99.90;;;;;;5052281;28;20181;-76
2023/04/10 01:15:21;;;;;;;10.37;6.27;;;12.10;99.90;;;;;;5051766;28;20235;-76
2023/04/10 01:17:53;;;;;;;7.57;5.80;;;12.10;99.90;;;;;;5052527;28;20179;-77
2023/04/10 01:20:24;;;;;;;8.13;6.23;;;12.10;99.90;;;;;;5050966;28;20554;-77
2023/04/10 01:23:27;;;;;;;9.87;6.67;;;12.10;99.90;;;;;;5051294;28;20183;-75
2023/04/10 01:26:11;;;;;;;7.50;5.80;;;12.20;99.90;;;;;;5051367;28;20173;-76
2023/04/10 01:29:00;;;;;;;9.43;6.27;;;12.10;99.90;;;;;;5051587;28;20621;-78
2023/04/10 01:31:31;;;;;;;8.83;6.20;;;11.90;99.90;;;;;;5051646;28;20176;-76
2023/04/10 01:34:05;;;;;;;7.47;5.57;;;11.90;99.90;;;;;;5054824;28;20172;-76
2023/04/10 01:36:41;;;;;;;8.50;5.50;;;12.00;99.90;;;;;;5055027;28;20178;-78
2023/04/10 01:39:08;;;;;;;8.30;6.20;;;12.00;99.90;;;;;;5055161;28;20188;-76
2023/04/10 01:41:37;;;;;;;7.53;5.57;;;12.00;99.90;;;;;;5056427;28;20201;-75
2023/04/10 01:44:04;;;;;;;8.47;5.37;;;11.90;99.90;;;;;;5055354;28;20255;-76
2023/04/10 01:46:31;;;;;;;7.10;5.13;;;11.90;99.90;;;;;;5055830;28;20202;-75
2023/04/10 01:49:01;;;;;;;9.93;5.30;;;11.90;99.90;;;;;;5055105;28;20159;-77
2023/04/10 01:51:28;;;;;;;7.43;5.50;;;11.90;99.90;;;;;;5055279;28;20639;-78
2023/04/10 01:53:54;;;;;;;7.50;5.33;;;11.90;99.90;;;;;;5055200;28;20191;-77
2023/04/10 01:56:20;;;;;;;7.13;5.73;;;11.90;99.90;;;;;;5055428;28;20613;-78
2023/04/10 01:58:46;;;;;;;7.20;5.13;;;11.90;99.90;;;;;;5057186;28;20174;-77
2023/04/10 02:01:19;;;;;;;12.20;5.70;;;11.90;99.90;;;;;;5055890;28;20592;-76
2023/04/10 02:03:44;;;;;;;7.87;5.37;;;11.90;99.90;;;;;;5055749;28;20313;-78
2023/04/10 02:06:16;;;;;;;6.73;5.50;;;11.80;99.90;;;;;;5054000;28;20196;-78
2023/04/10 02:09:06;;;;;;;11.43;5.57;;;11.80;99.90;;;;;;5054104;28;20347;-77
2023/04/10 02:11:47;;;;;;;7.43;5.47;;;11.80;99.90;;;;;;5054096;28;20173;-76
2023/04/10 02:14:17;;;;;;;8.40;4.90;;;11.80;99.90;;;;;;5054236;28;20228;-77
2023/04/10 02:16:43;;;;;;;8.30;5.50;;;11.80;99.90;;;;;;5054370;28;20182;-76
2023/04/10 02:19:11;;;;;;;5.80;5.17;;;11.80;99.90;;;;;;5054658;28;20640;-78
2023/04/10 02:21:38;;;;;;;7.57;5.30;;;11.70;99.90;;;;;;5054779;28;20539;-77
2023/04/10 02:24:05;;;;;;;7.20;5.27;;;11.70;99.90;;;;;;5055952;28;20255;-78
2023/04/10 02:26:46;;;;;;;6.13;4.73;;;11.60;99.90;;;;;;5054682;28;20170;-77
2023/04/10 02:29:13;;;;;;;11.07;5.60;;;11.60;99.90;;;;;;5054911;28;20170;-76
2023/04/10 02:31:40;;;;;;;6.60;4.90;;;11.60;99.90;;;;;;5054414;28;20634;-78
2023/04/10 02:34:06;;;;;;;6.23;5.00;;;11.60;99.90;;;;;;5055779;28;20174;-77
2023/04/10 02:36:32;;;;;;;7.17;4.97;;;11.60;99.90;;;;;;5054283;28;20269;-78
2023/04/10 02:38:58;;;;;;;8.07;5.70;;;11.60;99.90;;;;;;5054082;28;20182;-76
2023/04/10 02:41:23;;;;;;;5.77;4.67;;;11.70;99.90;;;;;;5053910;28;20191;-75
2023/04/10 02:43:51;;;;;;;6.30;4.53;;;11.70;99.90;;;;;;5054724;28;20669;-77
2023/04/10 02:46:16;;;;;;;7.43;4.90;;;11.70;99.90;;;;;;5053068;28;20588;-76
2023/04/10 02:48:42;;;;;;;5.47;4.33;;;11.60;99.90;;;;;;5054363;28;20194;-77
2023/04/10 02:51:08;;;;;;;6.23;4.60;;;11.60;99.90;;;;;;5054582;28;20170;-77
2023/04/10 02:53:33;;;;;;;6.70;4.60;;;11.60;99.90;;;;;;5053965;28;20178;-77
2023/04/10 02:55:59;;;;;;;5.80;4.60;;;11.40;99.90;;;;;;5053768;28;20186;-77
2023/04/10 02:58:29;;;;;;;6.57;5.03;;;11.40;99.90;;;;;;5053945;28;20216;-76
2023/04/10 03:00:55;;;;;;;6.10;4.90;;;11.50;99.90;;;;;;5054360;28;20182;-76
2023/04/10 03:03:21;;;;;;;6.73;4.60;;;11.60;99.90;;;;;;5054011;28;20726;-78
2023/04/10 03:05:48;;;;;;;6.93;4.33;;;11.70;99.90;;;;;;5053799;28;20289;-76
2023/04/10 03:08:16;;;;;;;6.73;4.60;;;11.70;99.90;;;;;;5054124;28;20181;-78
2023/04/10 03:10:47;;;;;;;5.33;4.07;;;11.80;99.90;;;;;;5053756;28;20255;-77
2023/04/10 03:13:13;;;;;;;5.67;4.43;;;11.70;99.90;;;;;;5053657;28;20181;-78
2023/04/10 03:15:39;;;;;;;5.33;4.23;;;11.50;99.90;;;;;;5053700;28;20536;-76
2023/04/10 03:18:05;;;;;;;6.53;4.50;;;11.60;99.90;;;;;;5054047;28;20173;-77
2023/04/10 03:20:32;;;;;;;6.87;4.80;;;11.60;99.90;;;;;;5053372;28;20665;-78
2023/04/10 03:22:58;;;;;;;5.60;4.57;;;11.60;99.90;;;;;;5053076;28;20241;-77
2023/04/10 03:25:24;;;;;;;5.50;4.20;;;11.70;99.90;;;;;;5053819;28;20181;-77
2023/04/10 03:27:50;;;;;;;6.70;4.67;;;11.60;99.90;;;;;;5053884;28;20174;-76
2023/04/10 03:30:16;;;;;;;6.50;4.23;;;11.50;99.90;;;;;;5053512;28;20623;-76
2023/04/10 03:32:42;;;;;;;6.80;4.33;;;11.50;99.90;;;;;;5053165;28;20700;-78
2023/04/10 03:35:09;;;;;;;6.17;4.50;;;11.60;99.90;;;;;;5053079;28;20207;-76
2023/04/10 03:37:37;;;;;;;8.00;4.70;;;11.70;99.90;;;;;;5053042;28;20179;-76
2023/04/10 03:40:07;;;;;;;6.20;4.53;;;11.50;99.90;;;;;;5054412;28;20168;-77
2023/04/10 03:42:33;;;;;;;6.03;4.30;;;11.50;99.90;;;;;;5053713;28;20457;-77
2023/04/10 03:45:00;;;;;;;6.40;4.30;;;11.50;99.90;;;;;;5052286;28;20190;-78
2023/04/10 03:47:26;;;;;;;5.37;4.10;;;11.50;99.90;;;;;;5052758;28;20577;-76
2023/04/10 03:49:52;;;;;;;6.83;4.70;;;11.40;99.90;;;;;;5054336;28;20154;-77
2023/04/10 03:52:18;;;;;;;6.63;4.87;;;11.40;99.90;;;;;;5052292;28;20174;-78
2023/04/10 03:54:43;;;;;;;5.63;4.10;;;11.40;99.90;;;;;;5052901;28;20549;-76
2023/04/10 03:57:09;;;;;;;5.30;4.03;;;11.40;99.90;;;;;;5053130;28;20194;-78
2023/04/10 03:59:37;;;;;;;5.87;4.70;;;11.50;99.90;;;;;;5053078;28;20707;-76
2023/04/10 04:02:03;;;;;;;7.20;4.73;;;11.40;99.90;;;;;;5054451;28;20225;-79
2023/04/10 04:04:30;;;;;;;7.37;5.23;;;11.40;99.90;;;;;;5054414;28;20639;-77
2023/04/10 04:06:55;;;;;;;5.67;4.30;;;11.40;99.90;;;;;;5052588;28;20716;-78
2023/04/10 04:09:21;;;;;;;5.97;4.67;;;11.50;99.90;;;;;;5053010;28;20260;-77
2023/04/10 04:11:47;;;;;;;6.20;4.43;;;11.50;99.90;;;;;;5052209;28;20171;-78
2023/04/10 04:14:12;;;;;;;6.73;4.50;;;11.40;99.90;;;;;;5052171;28;20178;-78
2023/04/10 04:16:39;;;;;;;6.33;4.67;;;11.30;99.90;;;;;;5052910;28;20182;-77
2023/04/10 04:19:06;;;;;;;7.43;4.83;;;11.40;99.90;;;;;;5051603;28;20179;-78
2023/04/10 04:21:31;;;;;;;5.87;4.30;;;11.50;99.90;;;;;;5053233;28;20160;-77
2023/04/10 04:23:57;;;;;;;4.53;4.00;;;11.60;99.90;;;;;;5051657;28;20225;-77
2023/04/10 04:26:23;;;;;;;5.70;4.60;;;11.50;99.90;;;;;;5053035;28;20202;-77
2023/04/10 04:28:49;;;;;;;5.57;4.53;;;11.70;99.90;;;;;;5051772;28;20678;-76
2023/04/10 04:31:15;;;;;;;6.07;4.37;;;11.70;99.90;;;;;;5053165;28;20205;-77
2023/04/10 04:33:41;;;;;;;6.50;4.90;;;11.60;99.90;;;;;;5051732;28;20179;-77
2023/04/10 04:36:08;;;;;;;5.70;4.47;;;11.50;99.90;;;;;;5052222;28;20176;-77
2023/04/10 04:38:34;;;;;;;4.93;4.27;;;11.50;99.90;;;;;;5052457;28;20258;-75
2023/04/10 04:41:00;;;;;;;6.20;4.30;;;11.50;99.90;;;;;;5053382;28;20237;-77
2023/04/10 04:43:25;;;;;;;6.33;4.40;;;11.50;99.90;;;;;;5051631;28;20204;-76
2023/04/10 04:45:51;;;;;;;7.40;4.97;;;11.50;99.90;;;;;;5051928;28;20632;-78
2023/04/10 04:48:17;;;;;;;6.57;4.90;;;11.50;99.90;;;;;;5054590;28;20234;-76
2023/04/10 04:50:42;;;;;;;7.70;4.87;;;11.50;99.90;;;;;;5053146;28;20162;-77
2023/04/10 04:53:08;;;;;;;5.70;4.53;;;11.30;99.90;;;;;;5052106;28;20181;-78
2023/04/10 04:55:34;;;;;;;6.97;4.13;;;11.30;99.90;;;;;;5052743;28;20180;-77
2023/04/10 04:58:00;;;;;;;5.60;4.60;;;11.30;99.90;;;;;;5052377;28;20200;-77
2023/04/10 05:00:25;;;;;;;5.50;4.23;;;11.30;99.90;;;;;;5053194;28;20266;-78
2023/04/10 05:02:52;;;;;;;7.37;4.83;;;11.40;99.90;;;;;;5052599;28;20251;-77
2023/04/10 05:05:18;;;;;;;5.17;4.20;;;11.40;99.90;;;;;;5051939;28;20195;-76
2023/04/10 05:07:43;;;;;;;5.63;4.60;;;11.40;99.90;;;;;;5052259;28;20171;-77
2023/04/10 05:10:09;;;;;;;7.23;4.50;;;11.30;99.90;;;;;;5056131;28;20264;-77
2023/04/10 05:12:35;;;;;;;5.40;4.70;;;11.40;99.90;;;;;;5056194;28;20531;-78
2023/04/10 05:15:00;;;;;;;5.87;4.73;;;11.50;99.90;;;;;;5056308;28;20656;-77
2023/04/10 05:17:26;;;;;;;7.83;5.10;;;11.50;99.90;;;;;;5057555;28;20256;-76
2023/04/10 05:19:52;;;;;;;5.40;4.53;;;11.40;99.90;;;;;;5056368;28;20176;-77
2023/04/10 05:22:18;;;;;;;8.47;4.97;;;11.40;99.90;;;;;;5056152;28;20168;-77
2023/04/10 05:24:44;;;;;;;6.73;4.87;;;11.40;99.90;;;;;;5056302;28;20285;-77
2023/04/10 05:27:10;;;;;;;5.17;4.53;;;11.30;99.90;;;;;;5055244;28;20215;-75
2023/04/10 05:29:35;;;;;;;5.97;4.53;;;11.30;99.90;;;;;;5056705;28;20221;-76
2023/04/10 05:32:02;;;;;;;5.20;4.27;;;11.50;99.90;;;;;;5055132;28;20191;-76
2023/04/10 05:34:28;;;;;;;8.40;5.10;;;11.40;99.90;;;;;;5056333;28;20285;-76
2023/04/10 05:36:53;;;;;;;6.10;4.90;;;11.40;99.90;;;;;;5055102;28;20204;-77
2023/04/10 05:39:19;;;;;;;6.97;4.53;;;11.50;99.90;;;;;;5054328;28;20173;-77
2023/04/10 05:41:45;;;;;;;6.47;4.80;;;11.60;99.90;;;;;;5055780;28;20539;-76
2023/04/10 05:44:10;;;;;;;6.00;4.47;;;11.70;99.90;;;;;;5054902;28;20205;-76
2023/04/10 05:46:36;;;;;;;5.80;4.40;;;11.70;99.90;;;;;;5054766;28;20179;-77
2023/04/10 05:49:02;;;;;;;6.07;4.57;;;11.50;99.90;;;;;;5054726;28;20182;-77
2023/04/10 05:51:28;;;;;;;5.77;4.63;;;11.60;99.90;;;;;;5055230;28;20182;-77
2023/04/10 05:53:55;;;;;;;5.03;4.03;;;11.70;99.90;;;;;;5055103;28;20186;-77
2023/04/10 05:56:23;;;;;;;6.93;4.83;;;11.60;99.90;;;;;;5056668;28;20164;-76
2023/04/10 05:58:48;;;;;;;5.47;4.27;;;11.60;99.90;;;;;;5056233;28;20165;-77
2023/04/10 06:01:14;;;;;;;6.43;4.93;;;11.60;99.90;;;;;;5054928;28;20226;-77
2023/04/10 06:03:39;;;;;;;6.00;4.43;;;11.50;99.90;;;;;;5054641;28;20225;-78
2023/04/10 06:06:06;;;;;;;6.53;5.10;;;11.60;99.90;;;;;;5055270;28;20178;-77
2023/04/10 06:08:33;;;;;;;6.90;4.80;;;11.70;99.90;;;;;;5054901;28;20232;-76
2023/04/10 06:10:59;;;;;;;5.60;4.30;;;11.80;99.90;;;;;;5053937;28;20612;-77
2023/04/10 06:13:26;;;;;;;4.90;4.40;;;11.80;99.90;;;;;;5055945;28;20163;-78
2023/04/10 06:15:52;;;;;;;6.87;4.50;;;11.90;99.90;;;;;;5053923;28;20165;-77
2023/04/10 06:18:19;;;;;;;5.97;4.47;;;11.80;99.90;;;;;;5054478;28;20183;-76
2023/04/10 06:20:45;;;;;;;6.27;4.47;;;11.90;99.90;;;;;;5053467;28;20246;-76
2023/04/10 06:23:13;;;;;;;6.07;4.50;;;11.80;99.90;;;;;;5054254;28;20171;-78
2023/04/10 06:25:38;;;;;;;6.40;4.40;;;11.80;99.90;;;;;;5056223;28;20168;-77
2023/04/10 06:28:04;;;;;;;6.03;4.63;;;11.80;99.90;;;;;;5054939;28;20178;-77
2023/04/10 06:30:32;;;;;;;7.93;5.27;;;11.80;99.90;;;;;;5055333;28;20542;-77
2023/04/10 06:32:58;;;;;;;5.33;4.40;;;11.80;99.90;;;;;;5054370;28;20679;-77
2023/04/10 06:35:24;;;;;;;8.83;4.63;;;11.90;99.90;;;;;;5055627;28;20175;-77
2023/04/10 06:37:49;;;;;;;6.17;4.67;;;11.90;99.90;;;;;;5054753;28;20178;-77
2023/04/10 06:40:15;;;;;;;5.97;4.30;;;12.10;99.90;;;;;;5054315;28;20266;-79
2023/04/10 06:42:41;;;;;;;6.13;4.40;;;12.10;99.90;;;;;;5054851;28;20181;-80
2023/04/10 06:45:08;;;;;;;5.60;4.10;;;12.10;99.90;;;;;;5055020;28;20177;-81
2023/04/10 06:47:34;;;;;;;4.30;3.80;;;12.10;99.90;;;;;;5054634;28;20179;-81
2023/04/10 06:49:59;;;;;;;5.43;4.30;;;12.20;99.90;;;;;;5054825;28;20466;-80
2023/04/10 06:52:26;;;;;;;5.43;4.33;;;12.30;99.90;;;;;;5052883;28;20595;-79
2023/04/10 06:54:52;;;;;;;5.10;3.90;;;12.40;99.90;;;;;;5054637;28;20176;-79
2023/04/10 06:57:18;;;;;;;5.67;4.27;;;12.40;99.90;;;;;;5054129;28;20198;-79
2023/04/10 06:59:44;;;;;;;4.60;3.97;;;12.40;99.90;;;;;;5055135;28;20299;-80
2023/04/10 07:02:10;;;;;;;5.17;4.03;;;12.40;99.90;;;;;;5053659;28;20179;-79
2023/04/10 07:04:36;;;;;;;5.40;4.17;;;12.30;99.90;;;;;;5055841;28;20220;-80
2023/04/10 07:07:04;;;;;;;6.00;4.53;;;12.40;99.90;;;;;;5053129;28;20180;-80
2023/04/10 07:09:30;;;;;;;5.83;4.10;;;12.40;99.90;;;;;;5055523;28;20190;-78
2023/04/10 07:11:56;;;;;;;5.23;3.57;;;12.40;99.90;;;;;;5054720;28;20171;-80
2023/04/10 07:14:21;;;;;;;4.77;3.77;;;12.40;99.90;;;;;;5055047;28;20163;-80
2023/04/10 07:16:50;;;;;;;7.50;4.20;;;12.50;99.90;;;;;;5053632;28;20168;-80
2023/04/10 07:19:15;;;;;;;5.77;4.20;;;12.60;99.90;;;;;;5053716;28;20183;-80
2023/04/10 07:21:41;;;;;;;5.30;4.43;;;12.70;99.90;;;;;;5054866;28;20548;-79
2023/04/10 07:24:07;;;;;;;4.63;3.73;;;12.70;99.90;;;;;;5054671;28;20187;-79
2023/04/10 07:26:32;;;;;;;5.80;4.57;;;12.70;99.90;;;;;;5054827;28;20176;-79
2023/04/10 07:28:59;;;;;;;5.27;4.07;;;12.70;99.90;;;;;;5054337;28;20163;-80
2023/04/10 07:31:25;;;;;;;7.07;4.23;;;12.70;99.90;;;;;;5053497;28;20169;-79
2023/04/10 07:33:50;;;;;;;5.00;4.13;;;12.80;99.90;;;;;;5053421;28;20701;-79
2023/04/10 07:36:16;;;;;;;5.33;4.37;;;13.10;99.90;;;;;;5054009;28;20253;-79
2023/04/10 07:38:44;;;;;;;6.23;4.13;;;13.00;99.90;;;;;;5055652;28;20160;-79
2023/04/10 07:41:11;;;;;;;6.60;4.10;;;13.10;99.90;;;;;;5053665;28;20218;-80
2023/04/10 07:43:36;;;;;;;6.53;3.93;;;13.10;99.90;;;;;;5053294;28;20198;-79
2023/04/10 07:46:02;;;;;;;6.10;3.90;;;13.30;99.90;;;;;;5055542;28;20674;-80
2023/04/10 07:48:29;;;;;;;6.37;4.50;;;13.40;99.90;;;;;;5054444;28;20225;-79
2023/04/10 07:50:55;;;;;;;5.03;3.90;;;13.40;99.80;;;;;;5052984;28;20677;-79
2023/04/10 07:53:21;;;;;;;5.87;4.53;;;13.50;99.70;;;;;;5052936;28;20639;-81
2023/04/10 07:55:49;;;;;;;5.00;3.80;;;13.60;99.50;;;;;;5052953;28;20164;-80
2023/04/10 07:58:15;;;;;;;5.67;4.13;;;13.60;99.60;;;;;;5054017;28;20187;-81
2023/04/10 08:00:41;;;;;;;5.67;4.13;;;13.60;99.70;;;;;;5053160;28;20160;-80
2023/04/10 08:03:07;;;;;;;5.10;3.90;;;13.70;99.50;;;;;;5052579;28;20186;-80
2023/04/10 08:05:33;;;;;;;5.70;4.43;;;14.00;99.20;;;;;;5053710;28;20251;-81
2023/04/10 08:07:59;;;;;;;5.70;4.10;;;14.00;99.10;;;;;;5052444;28;20168;-80
2023/04/10 08:10:26;;;;;;;6.37;4.00;;;14.10;99.00;;;;;;5051034;28;20164;-80
2023/04/10 08:12:54;;;;;;;5.57;4.10;;;14.20;99.20;;;;;;5053035;28;20262;-80
2023/04/10 08:15:21;;;;;;;6.57;4.30;;;14.30;98.50;;;;;;5048316;28;20173;-80
2023/04/10 08:17:47;;;;;;;5.50;4.03;;;14.40;98.70;;;;;;5052380;28;20492;-80
2023/04/10 08:20:14;;;;;;;5.83;4.17;;;14.10;98.80;;;;;;5051571;28;20176;-80
2023/04/10 08:22:39;;;;;;;6.00;4.60;;;14.20;99.20;;;;;;5052848;28;20609;-80
2023/04/10 08:25:05;;;;;;;6.77;4.10;;;14.30;99.00;;;;;;5053323;28;20298;-80
2023/04/10 08:27:31;;;;;;;5.90;4.40;;;14.40;98.90;;;;;;5053655;28;20549;-80
2023/04/10 08:29:57;;;;;;;5.50;4.50;;;14.50;98.70;;;;;;5049649;28;20182;-80
2023/04/10 08:32:25;;;;;;;7.37;4.80;;;14.20;99.00;;;;;;5033416;28;20641;-81
2023/04/10 08:34:51;;;;;;;6.50;4.40;;;14.30;99.40;;;;;;5046393;28;20585;-80
2023/04/10 08:37:18;;;;;;;6.00;4.60;;;14.40;99.10;;;;;;5053017;28;20167;-80
2023/04/10 08:39:44;;;;;;;6.03;4.20;;;14.50;99.10;;;;;;5052006;28;20254;-80
2023/04/10 08:42:10;;;;;;;6.00;4.40;;;14.60;99.10;;;;;;5052239;28;20686;-80
2023/04/10 08:44:36;;;;;;;5.67;4.57;;;14.70;99.00;;;;;;5052839;28;20187;-81
2023/04/10 08:47:04;;;;;;;4.87;3.97;;;14.70;99.10;;;;;;5053537;28;20228;-79
2023/04/10 08:49:43;;;;;;;4.93;4.27;;;14.60;99.40;;;;;;5051091;28;20240;-81
2023/04/10 08:52:19;;;;;;;8.77;4.37;;;14.60;99.60;;;;;;5032035;28;20259;-80
2023/04/10 08:54:49;;;;;;;5.53;4.50;;;14.60;99.40;;;;;;5055716;28;20172;-79
2023/04/10 08:57:19;;;;;;;5.73;3.77;;;14.70;99.40;;;;;;5052208;28;20191;-80
2023/04/10 08:59:47;;;;;;;6.27;4.67;;;14.60;99.60;;;;;;5051417;28;20205;-80
2023/04/10 09:02:13;;;;;;;7.23;4.63;;;14.70;99.70;;;;;;5052839;28;20656;-81
2023/04/10 09:04:48;;;;;;;9.60;5.27;;;14.90;99.30;;;;;;5063628;28;20204;-81
2023/04/10 09:07:15;;;;;;;5.67;4.50;;;15.10;99.00;;;;;;5053120;28;20175;-80
2023/04/10 09:09:40;;;;;;;5.40;4.10;;;15.20;98.70;;;;;;5051430;28;20176;-80
2023/04/10 09:12:06;;;;;;;5.60;4.00;;;15.30;98.80;;;;;;5052979;28;20163;-81
2023/04/10 09:14:34;;;;;;;4.73;4.10;;;15.50;98.70;;;;;;5055526;28;20247;-80
2023/04/10 09:17:19;;;;;;;5.93;4.00;;;15.70;98.20;;;;;;5051360;28;20546;-80
2023/04/10 09:19:51;;;;;;;6.37;4.10;;;15.80;98.00;;;;;;5051576;28;20646;-78
2023/04/10 09:22:18;;;;;;;4.50;3.97;;;15.90;97.60;;;;;;5050982;28;20660;-80
2023/04/10 09:24:46;;;;;;;5.57;4.10;;;16.10;97.60;;;;;;5050171;28;20665;-81
2023/04/10 09:27:38;;;;;;;6.43;4.00;;;16.20;97.40;;;;;;5051487;28;20262;-80
2023/04/10 09:30:05;;;;;;;7.03;4.43;;;15.80;98.00;;;;;;5050658;28;20544;-81
2023/04/10 09:32:45;;;;;;;5.87;4.33;;;15.60;98.40;;;;;;5050879;28;20193;-81
2023/04/10 09:35:13;;;;;;;6.33;4.23;;;15.70;98.60;;;;;;5042680;28;20652;-80
2023/04/10 09:37:43;;;;;;;7.07;4.30;;;15.60;98.80;;;;;;5050725;28;20172;-80
2023/04/10 09:40:23;;;;;;;6.70;4.10;;;15.40;99.20;;;;;;5050670;28;20274;-79
2023/04/10 09:42:51;;;;;;;7.20;4.30;;;15.30;99.40;;;;;;5034494;28;20524;-80
2023/04/10 09:45:21;;;;;;;7.47;4.70;;;15.30;99.30;;;;;;5058559;28;20180;-82
2023/04/10 09:48:06;;;;;;;8.23;4.80;;;15.40;99.30;;;;;;5050059;28;20539;-81
2023/04/10 09:50:42;;;;;;;7.70;4.57;;;15.40;99.40;;;;;;5051716;28;20176;-80
2023/04/10 09:53:20;;;;;;;6.73;4.57;;;15.30;99.60;;;;;;5051002;28;20198;-79
2023/04/10 09:55:47;;;;;;;6.27;4.33;;;15.40;99.50;;;;;;5054920;28;20664;-80
2023/04/10 09:58:16;;;;;;;7.50;4.40;;;15.70;99.20;;;;;;5040191;28;20201;-81
2023/04/10 10:00:44;;;;;;;8.07;4.40;;;16.00;98.80;;;;;;5041683;28;20207;-80
2023/04/10 10:03:12;;;;;;;5.80;3.60;;;16.20;98.40;;;;;;5059104;28;20176;-81
2023/04/10 10:05:43;;;;;;;6.07;4.40;;;16.20;98.50;;;;;;5074530;28;20160;-81
2023/04/10 10:08:13;;;;;;;7.00;4.37;;;16.50;98.30;;;;;;5061340;28;20170;-79
2023/04/10 10:10:52;;;;;;;5.47;3.60;;;16.80;97.60;;;;;;5052854;28;20169;-81
2023/04/10 10:13:29;;;;;;;4.37;3.50;;;17.00;97.30;;;;;;5059933;28;20177;-79
2023/04/10 10:16:05;;;;;;;7.73;3.70;;;17.40;96.80;;;;;;5053856;28;20200;-80
2023/04/10 10:18:49;;;;;;;4.67;3.43;;;17.30;96.60;;;;;;5054429;28;20174;-80
2023/04/10 10:21:17;;;;;;;4.27;3.50;;;17.50;96.40;;;;;;5054019;28;20170;-81
2023/04/10 10:23:44;;;;;;;4.27;3.87;;;17.30;96.60;;;;;;5054012;28;20202;-80
2023/04/10 10:26:12;;;;;;;4.37;3.87;;;17.40;96.70;;;;;;5054086;28;20223;-81
2023/04/10 10:28:41;;;;;;;4.40;3.27;;;17.70;96.40;;;;;;5053260;28;21611;-80
2023/04/10 10:31:07;;;;;;;6.00;3.87;;;17.70;96.30;;;;;;5052561;28;20828;-81
2023/04/10 10:33:35;;;;;;;5.60;3.50;;;18.00;96.10;;;;;;5042039;28;20170;-81
2023/04/10 10:36:03;;;;;;;3.43;3.13;;;18.10;95.70;;;;;;5047353;28;20269;-81
2023/04/10 10:38:30;;;;;;;4.30;3.27;;;18.00;95.70;;;;;;5053952;28;20174;-80
2023/04/10 10:41:22;;;;;;;4.20;3.27;;;17.80;96.20;;;;;;5053832;28;20245;-80
2023/04/10 10:44:22;;;;;;;4.63;3.00;;;17.90;95.90;;;;;;5055269;28;20289;-80
2023/04/10 10:46:51;;;;;;;4.17;3.40;;;17.70;96.30;;;;;;5054066;28;20591;-80
2023/04/10 10:49:17;;;;;;;5.73;3.00;;;17.80;96.30;;;;;;5034873;28;20578;-81
2023/04/10 10:51:43;;;;;;;3.40;3.10;;;18.00;96.40;;;;;;5035337;28;20231;-80
2023/04/10 10:54:29;;;;;;;3.17;2.87;;;18.20;96.00;;;;;;5034966;28;20253;-80
2023/04/10 10:56:54;;;;;;;3.83;2.90;;;18.40;95.50;;;;;;5033342;28;20198;-80
2023/04/10 10:59:42;;;;;;;4.23;3.07;;;18.30;95.10;;;;;;5045241;28;20666;-81
2023/04/10 11:02:16;;;;;;;4.10;3.00;;;18.20;95.50;;;;;;5053673;28;20170;-81
2023/04/10 11:04:43;;;;;;;2.83;2.43;;;18.20;95.20;;;;;;5053419;28;20292;-80
2023/04/10 11:07:11;;;;;;;3.10;2.80;;;17.90;95.40;;;;;;5052684;28;20228;-80
2023/04/10 11:09:56;;;;;;;3.13;2.57;;;18.10;95.40;;;;;;5053182;28;20236;-80
2023/04/10 11:12:25;;;;;;;3.20;2.80;;;18.10;95.30;;;;;;5053470;28;20166;-81
2023/04/10 11:15:00;;;;;;;3.90;2.70;;;18.30;94.90;;;;;;5055129;28;20575;-80
2023/04/10 11:17:45;;;;;;;5.13;3.00;;;17.90;95.50;;;;;;5054150;28;20175;-81
2023/04/10 11:20:10;;;;;;;4.30;2.93;;;18.00;95.50;;;;;;5052586;28;20189;-81
2023/04/10 11:23:06;;;;;;;4.67;2.93;;;18.20;95.20;;;;;;5053810;28;20183;-79
2023/04/10 11:25:52;;;;;;;5.10;2.90;;;18.10;95.10;;;;;;5053217;28;20237;-81
2023/04/10 11:28:38;;;;;;;3.77;2.70;;;18.20;95.30;;;;;;5052832;28;20544;-81
2023/04/10 11:31:17;;;;;;;3.23;2.67;;;18.10;95.00;;;;;;5054477;28;20167;-81
2023/04/10 11:33:43;;;;;;;3.93;2.23;;;18.10;95.10;;;;;;5053007;28;20221;-81
2023/04/10 11:36:14;;;;;;;2.97;2.30;;;18.00;94.80;;;;;;5052872;28;20166;-79
2023/04/10 11:38:40;;;;;;;3.23;2.37;;;17.90;94.70;;;;;;5054686;28;20158;-80
2023/04/10 11:41:06;;;;;;;7.10;2.60;;;17.80;95.10;;;;;;5053770;28;20178;-79
2023/04/10 11:43:32;;;;;;;3.30;2.07;;;18.00;95.10;;;;;;5053013;28;20198;-80
2023/04/10 11:46:08;;;;;;;3.60;2.50;;;18.20;94.70;;;;;;5052688;28;20179;-79
2023/04/10 11:48:36;;;;;;;3.33;2.70;;;18.30;94.60;;;;;;5053525;28;20479;-79
2023/04/10 11:51:10;;;;;;;5.70;2.23;;;18.20;94.60;;;;;;5054120;28;20156;-80
2023/04/10 11:53:37;;;;;;;3.07;2.20;;;18.10;94.70;;;;;;5052594;28;20190;-80
2023/04/10 11:56:03;;;;;;;2.83;2.10;;;17.90;95.30;;;;;;5052753;28;20179;-79
2023/04/10 11:58:31;;;;;;;2.30;2.10;;;17.90;95.30;;;;;;5052095;28;20713;-79
2023/04/10 12:01:02;;;;;;;3.17;2.27;;;17.80;95.30;;;;;;5052770;28;20252;-81
2023/04/10 12:03:39;;;;;;;3.30;2.30;;;17.60;95.90;;;;;;5052438;28;20327;-80
2023/04/10 12:06:14;;;;;;;5.33;2.63;;;17.70;95.70;;;;;;5052053;28;20166;-81
2023/04/10 12:08:49;;;;;;;3.03;2.40;;;17.70;96.00;;;;;;5051991;28;20166;-80
2023/04/10 12:11:47;;;;;;;3.17;1.93;;;17.80;95.60;;;;;;5053912;28;20162;-81
2023/04/10 12:14:13;;;;;;;2.30;2.10;;;17.80;95.80;;;;;;5052001;28;20233;-81
2023/04/10 12:16:38;;;;;;;2.60;2.13;;;18.00;95.80;;;;;;5052517;28;20241;-81
2023/04/10 12:19:05;;;;;;;2.33;1.90;;;17.90;95.70;;;;;;5051578;28;20170;-82
2023/04/10 12:21:34;;;;;;;3.73;2.30;;;17.70;95.80;;;;;;5051830;28;20175;-82
2023/04/10 12:24:01;;;;;;;2.10;1.90;;;17.90;95.60;;;;;;5051677;28;20224;-82
2023/04/10 12:26:27;;;;;;;3.10;2.00;;;17.90;95.50;;;;;;5051531;28;20170;-82
2023/04/10 12:28:54;;;;;;;2.90;2.30;;;18.10;95.20;;;;;;5051688;28;20175;-82
2023/04/10 12:31:32;;;;;;;4.17;2.00;;;18.00;95.30;;;;;;5051564;28;20182;-81
2023/04/10 12:33:59;;;;;;;2.67;1.63;;;18.10;95.10;;;;;;5051590;28;20298;-81
2023/04/10 12:36:31;;;;;;;3.50;1.70;;;18.20;94.80;;;;;;5051604;28;20175;-80
2023/04/10 12:39:04;;;;;;;3.30;2.17;;;18.30;94.40;;;;;;5051534;28;20178;-81
2023/04/10 12:41:31;;;;;;;3.67;1.87;;;18.10;94.40;;;;;;5052094;28;20171;-81
2023/04/10 12:44:26;;;;;;;3.93;2.00;;;18.10;94.70;;;;;;5053096;28;20210;-80
2023/04/10 12:46:59;;;;;;;2.43;2.23;;;18.30;94.80;;;;;;5044519;28;20594;-83
2023/04/10 12:49:24;;;;;;;3.00;2.03;;;18.30;94.90;;;;;;5059679;28;20643;-83
2023/04/10 12:51:52;;;;;;;3.10;1.87;;;18.00;96.00;;;;;;5061499;28;20171;-82
2023/04/10 12:54:35;;;;;;;3.00;2.30;;;17.80;97.20;;;;;;5061364;28;20178;-81